sensor_id;sensor_type;location;lat;lon;timestamp;P1;durP1;ratioP1;P2;durP2;ratioP2
11582;SDS011;34299;50.820;4.548;2023-03-01T00:01:07;10.57;;;6.70;;
11582;SDS011;34299;50.820;4.548;2023-03-01T00:03:35;11.85;;;7.10;;
11582;SDS011;34299;50.820;4.548;2023-03-01T00:06:02;8.18;;;6.63;;
11582;SDS011;34299;50.820;4.548;2023-03-01T00:08:31;8.43;;;6.95;;
11582;SDS011;34299;50.820;4.548;2023-03-01T00:10:59;8.35;;;6.65;;
11582;SDS011;34299;50.820;4.548;2023-03-01T00:13:27;9.30;;;6.95;;
11582;SDS011;34299;50.820;4.548;2023-03-01T00:15:54;8.98;;;7.05;;
11582;SDS011;34299;50.820;4.548;2023-03-01T00:18:21;9.13;;;7.10;;
11582;SDS011;34299;50.820;4.548;2023-03-01T00:20:49;8.93;;;6.43;;
11582;SDS011;34299;50.820;4.548;2023-03-01T00:23:17;8.32;;;6.32;;
11582;SDS011;34299;50.820;4.548;2023-03-01T00:25:45;9.32;;;6.22;;
11582;SDS011;34299;50.820;4.548;2023-03-01T00:28:12;10.60;;;6.63;;
11582;SDS011;34299;50.820;4.548;2023-03-01T00:30:40;9.90;;;6.50;;
11582;SDS011;34299;50.820;4.548;2023-03-01T00:33:07;7.88;;;6.38;;
11582;SDS011;34299;50.820;4.548;2023-03-01T00:35:34;8.07;;;6.40;;
11582;SDS011;34299;50.820;4.548;2023-03-01T00:38:02;8.40;;;6.45;;
11582;SDS011;34299;50.820;4.548;2023-03-01T00:40:30;8.13;;;6.10;;
11582;SDS011;34299;50.820;4.548;2023-03-01T00:42:59;10.27;;;6.57;;
11582;SDS011;34299;50.820;4.548;2023-03-01T00:45:27;10.27;;;6.75;;
11582;SDS011;34299;50.820;4.548;2023-03-01T00:47:56;8.80;;;6.75;;
11582;SDS011;34299;50.820;4.548;2023-03-01T00:50:23;8.93;;;6.97;;
11582;SDS011;34299;50.820;4.548;2023-03-01T00:52:52;8.45;;;6.45;;
11582;SDS011;34299;50.820;4.548;2023-03-01T00:55:19;7.93;;;5.90;;
11582;SDS011;34299;50.820;4.548;2023-03-01T00:57:46;8.02;;;5.78;;
11582;SDS011;34299;50.820;4.548;2023-03-01T01:00:15;11.43;;;7.30;;
11582;SDS011;34299;50.820;4.548;2023-03-01T01:02:42;7.93;;;6.63;;
11582;SDS011;34299;50.820;4.548;2023-03-01T01:05:10;7.90;;;6.43;;
11582;SDS011;34299;50.820;4.548;2023-03-01T01:07:37;10.30;;;6.80;;
11582;SDS011;34299;50.820;4.548;2023-03-01T01:10:04;10.25;;;6.68;;
11582;SDS011;34299;50.820;4.548;2023-03-01T01:12:32;9.52;;;6.75;;
11582;SDS011;34299;50.820;4.548;2023-03-01T01:15:00;9.13;;;5.95;;
11582;SDS011;34299;50.820;4.548;2023-03-01T01:17:28;8.85;;;6.60;;
11582;SDS011;34299;50.820;4.548;2023-03-01T01:19:56;8.18;;;6.32;;
11582;SDS011;34299;50.820;4.548;2023-03-01T01:22:23;9.00;;;6.55;;
11582;SDS011;34299;50.820;4.548;2023-03-01T01:24:50;9.45;;;6.78;;
11582;SDS011;34299;50.820;4.548;2023-03-01T01:27:17;8.18;;;6.18;;
11582;SDS011;34299;50.820;4.548;2023-03-01T01:29:44;7.75;;;5.97;;
11582;SDS011;34299;50.820;4.548;2023-03-01T01:32:12;8.45;;;6.05;;
11582;SDS011;34299;50.820;4.548;2023-03-01T01:34:41;9.25;;;5.53;;
11582;SDS011;34299;50.820;4.548;2023-03-01T01:37:08;8.70;;;6.07;;
11582;SDS011;34299;50.820;4.548;2023-03-01T01:39:35;10.50;;;6.75;;
11582;SDS011;34299;50.820;4.548;2023-03-01T01:42:02;7.90;;;6.22;;
11582;SDS011;34299;50.820;4.548;2023-03-01T01:44:30;6.70;;;5.63;;
11582;SDS011;34299;50.820;4.548;2023-03-01T01:46:58;8.27;;;6.10;;
11582;SDS011;34299;50.820;4.548;2023-03-01T01:49:28;10.68;;;6.30;;
11582;SDS011;34299;50.820;4.548;2023-03-01T01:51:59;6.90;;;5.80;;
11582;SDS011;34299;50.820;4.548;2023-03-01T01:54:28;10.93;;;6.22;;
11582;SDS011;34299;50.820;4.548;2023-03-01T01:56:56;8.75;;;6.30;;
11582;SDS011;34299;50.820;4.548;2023-03-01T01:59:25;8.35;;;5.90;;
11582;SDS011;34299;50.820;4.548;2023-03-01T02:01:54;8.90;;;6.20;;
11582;SDS011;34299;50.820;4.548;2023-03-01T02:04:21;7.95;;;6.10;;
11582;SDS011;34299;50.820;4.548;2023-03-01T02:06:51;8.57;;;5.70;;
11582;SDS011;34299;50.820;4.548;2023-03-01T02:09:23;8.02;;;5.57;;
11582;SDS011;34299;50.820;4.548;2023-03-01T02:11:51;7.35;;;5.97;;
11582;SDS011;34299;50.820;4.548;2023-03-01T02:14:18;9.27;;;5.90;;
11582;SDS011;34299;50.820;4.548;2023-03-01T02:16:47;6.85;;;5.85;;
11582;SDS011;34299;50.820;4.548;2023-03-01T02:19:17;11.43;;;6.72;;
11582;SDS011;34299;50.820;4.548;2023-03-01T02:21:49;9.68;;;6.72;;
11582;SDS011;34299;50.820;4.548;2023-03-01T02:24:19;8.35;;;6.35;;
11582;SDS011;34299;50.820;4.548;2023-03-01T02:26:51;9.30;;;6.28;;
11582;SDS011;34299;50.820;4.548;2023-03-01T02:29:21;11.23;;;5.65;;
11582;SDS011;34299;50.820;4.548;2023-03-01T02:31:49;7.03;;;5.45;;
11582;SDS011;34299;50.820;4.548;2023-03-01T02:34:16;8.50;;;5.57;;
11582;SDS011;34299;50.820;4.548;2023-03-01T02:36:47;9.43;;;6.05;;
11582;SDS011;34299;50.820;4.548;2023-03-01T02:39:16;7.43;;;5.45;;
11582;SDS011;34299;50.820;4.548;2023-03-01T02:41:46;7.38;;;5.88;;
11582;SDS011;34299;50.820;4.548;2023-03-01T02:44:13;8.85;;;6.47;;
11582;SDS011;34299;50.820;4.548;2023-03-01T02:46:43;9.52;;;5.88;;
11582;SDS011;34299;50.820;4.548;2023-03-01T02:49:18;10.68;;;6.40;;
11582;SDS011;34299;50.820;4.548;2023-03-01T02:51:48;7.95;;;6.13;;
11582;SDS011;34299;50.820;4.548;2023-03-01T02:54:21;8.73;;;5.65;;
11582;SDS011;34299;50.820;4.548;2023-03-01T02:56:49;8.20;;;5.55;;
11582;SDS011;34299;50.820;4.548;2023-03-01T02:59:18;12.18;;;6.60;;
11582;SDS011;34299;50.820;4.548;2023-03-01T03:01:47;9.48;;;6.18;;
11582;SDS011;34299;50.820;4.548;2023-03-01T03:04:15;8.70;;;6.03;;
11582;SDS011;34299;50.820;4.548;2023-03-01T03:06:43;8.02;;;5.93;;
11582;SDS011;34299;50.820;4.548;2023-03-01T03:09:10;8.43;;;6.43;;
11582;SDS011;34299;50.820;4.548;2023-03-01T03:11:37;6.70;;;5.57;;
11582;SDS011;34299;50.820;4.548;2023-03-01T03:14:06;9.52;;;6.93;;
11582;SDS011;34299;50.820;4.548;2023-03-01T03:16:38;8.07;;;5.90;;
11582;SDS011;34299;50.820;4.548;2023-03-01T03:19:07;7.93;;;6.57;;
11582;SDS011;34299;50.820;4.548;2023-03-01T03:21:34;7.15;;;5.28;;
11582;SDS011;34299;50.820;4.548;2023-03-01T03:24:01;7.70;;;6.10;;
11582;SDS011;34299;50.820;4.548;2023-03-01T03:26:29;9.65;;;6.82;;
11582;SDS011;34299;50.820;4.548;2023-03-01T03:28:56;8.55;;;5.88;;
11582;SDS011;34299;50.820;4.548;2023-03-01T03:31:24;7.68;;;5.90;;
11582;SDS011;34299;50.820;4.548;2023-03-01T03:33:51;9.98;;;6.20;;
11582;SDS011;34299;50.820;4.548;2023-03-01T03:36:21;7.63;;;5.53;;
11582;SDS011;34299;50.820;4.548;2023-03-01T03:38:48;8.23;;;5.85;;
11582;SDS011;34299;50.820;4.548;2023-03-01T03:41:16;12.95;;;6.45;;
11582;SDS011;34299;50.820;4.548;2023-03-01T03:43:43;9.60;;;6.93;;
11582;SDS011;34299;50.820;4.548;2023-03-01T03:46:10;7.75;;;5.95;;
11582;SDS011;34299;50.820;4.548;2023-03-01T03:48:39;8.98;;;6.45;;
11582;SDS011;34299;50.820;4.548;2023-03-01T03:51:06;8.55;;;6.03;;
11582;SDS011;34299;50.820;4.548;2023-03-01T03:53:35;9.13;;;6.20;;
11582;SDS011;34299;50.820;4.548;2023-03-01T03:56:02;8.75;;;6.05;;
11582;SDS011;34299;50.820;4.548;2023-03-01T03:58:30;7.95;;;5.75;;
11582;SDS011;34299;50.820;4.548;2023-03-01T04:00:57;9.27;;;6.00;;
11582;SDS011;34299;50.820;4.548;2023-03-01T04:03:26;11.15;;;6.78;;
11582;SDS011;34299;50.820;4.548;2023-03-01T04:05:53;8.00;;;6.03;;
11582;SDS011;34299;50.820;4.548;2023-03-01T04:08:21;10.85;;;6.75;;
11582;SDS011;34299;50.820;4.548;2023-03-01T04:10:51;8.82;;;6.20;;
11582;SDS011;34299;50.820;4.548;2023-03-01T04:13:19;8.93;;;6.45;;
11582;SDS011;34299;50.820;4.548;2023-03-01T04:15:48;7.50;;;6.00;;
11582;SDS011;34299;50.820;4.548;2023-03-01T04:18:15;8.13;;;6.03;;
11582;SDS011;34299;50.820;4.548;2023-03-01T04:20:43;12.85;;;6.53;;
11582;SDS011;34299;50.820;4.548;2023-03-01T04:23:12;9.68;;;6.63;;
11582;SDS011;34299;50.820;4.548;2023-03-01T04:25:41;9.85;;;6.85;;
11582;SDS011;34299;50.820;4.548;2023-03-01T04:28:10;10.00;;;6.43;;
11582;SDS011;34299;50.820;4.548;2023-03-01T04:30:38;9.48;;;6.35;;
11582;SDS011;34299;50.820;4.548;2023-03-01T04:33:10;9.13;;;6.25;;
11582;SDS011;34299;50.820;4.548;2023-03-01T04:35:38;8.95;;;6.40;;
11582;SDS011;34299;50.820;4.548;2023-03-01T04:38:06;10.48;;;5.57;;
11582;SDS011;34299;50.820;4.548;2023-03-01T04:40:33;8.38;;;6.00;;
11582;SDS011;34299;50.820;4.548;2023-03-01T04:43:00;6.78;;;5.63;;
11582;SDS011;34299;50.820;4.548;2023-03-01T04:45:29;10.93;;;5.90;;
11582;SDS011;34299;50.820;4.548;2023-03-01T04:47:56;7.93;;;5.50;;
11582;SDS011;34299;50.820;4.548;2023-03-01T04:50:23;11.50;;;6.35;;
11582;SDS011;34299;50.820;4.548;2023-03-01T04:52:50;9.10;;;6.82;;
11582;SDS011;34299;50.820;4.548;2023-03-01T04:55:18;8.02;;;5.80;;
11582;SDS011;34299;50.820;4.548;2023-03-01T04:57:45;7.68;;;6.18;;
11582;SDS011;34299;50.820;4.548;2023-03-01T05:00:14;8.80;;;6.07;;
11582;SDS011;34299;50.820;4.548;2023-03-01T05:02:48;9.82;;;6.97;;
11582;SDS011;34299;50.820;4.548;2023-03-01T05:05:19;10.35;;;6.22;;
11582;SDS011;34299;50.820;4.548;2023-03-01T05:07:50;7.97;;;5.93;;
11582;SDS011;34299;50.820;4.548;2023-03-01T05:10:17;9.27;;;6.55;;
11582;SDS011;34299;50.820;4.548;2023-03-01T05:12:44;10.65;;;6.78;;
11582;SDS011;34299;50.820;4.548;2023-03-01T05:15:12;10.10;;;6.38;;
11582;SDS011;34299;50.820;4.548;2023-03-01T05:17:39;10.13;;;6.15;;
11582;SDS011;34299;50.820;4.548;2023-03-01T05:20:09;9.25;;;6.30;;
11582;SDS011;34299;50.820;4.548;2023-03-01T05:22:36;8.63;;;6.50;;
11582;SDS011;34299;50.820;4.548;2023-03-01T05:25:04;9.98;;;6.38;;
11582;SDS011;34299;50.820;4.548;2023-03-01T05:27:33;18.45;;;6.65;;
11582;SDS011;34299;50.820;4.548;2023-03-01T05:30:00;9.13;;;6.78;;
11582;SDS011;34299;50.820;4.548;2023-03-01T05:32:38;7.13;;;6.15;;
11582;SDS011;34299;50.820;4.548;2023-03-01T05:35:06;7.95;;;6.68;;
11582;SDS011;34299;50.820;4.548;2023-03-01T05:37:34;10.27;;;6.65;;
11582;SDS011;34299;50.820;4.548;2023-03-01T05:40:02;8.15;;;6.15;;
11582;SDS011;34299;50.820;4.548;2023-03-01T05:42:30;7.97;;;6.20;;
11582;SDS011;34299;50.820;4.548;2023-03-01T05:44:57;8.65;;;6.25;;
11582;SDS011;34299;50.820;4.548;2023-03-01T05:47:24;8.05;;;5.88;;
11582;SDS011;34299;50.820;4.548;2023-03-01T05:49:51;9.32;;;5.82;;
11582;SDS011;34299;50.820;4.548;2023-03-01T05:52:19;11.40;;;6.63;;
11582;SDS011;34299;50.820;4.548;2023-03-01T05:54:47;9.90;;;6.35;;
11582;SDS011;34299;50.820;4.548;2023-03-01T05:57:14;9.27;;;6.03;;
11582;SDS011;34299;50.820;4.548;2023-03-01T05:59:42;10.27;;;6.68;;
11582;SDS011;34299;50.820;4.548;2023-03-01T06:02:09;8.52;;;6.50;;
11582;SDS011;34299;50.820;4.548;2023-03-01T06:04:36;9.82;;;7.20;;
11582;SDS011;34299;50.820;4.548;2023-03-01T06:07:03;10.55;;;6.90;;
11582;SDS011;34299;50.820;4.548;2023-03-01T06:09:31;10.70;;;6.55;;
11582;SDS011;34299;50.820;4.548;2023-03-01T06:11:59;10.85;;;6.85;;
11582;SDS011;34299;50.820;4.548;2023-03-01T06:14:26;9.95;;;6.63;;
11582;SDS011;34299;50.820;4.548;2023-03-01T06:16:54;10.13;;;6.32;;
11582;SDS011;34299;50.820;4.548;2023-03-01T06:19:21;8.05;;;6.43;;
11582;SDS011;34299;50.820;4.548;2023-03-01T06:21:48;7.95;;;6.32;;
11582;SDS011;34299;50.820;4.548;2023-03-01T06:24:15;8.05;;;6.47;;
11582;SDS011;34299;50.820;4.548;2023-03-01T06:26:42;9.48;;;6.28;;
11582;SDS011;34299;50.820;4.548;2023-03-01T06:29:11;9.32;;;7.00;;
11582;SDS011;34299;50.820;4.548;2023-03-01T06:31:39;10.68;;;6.75;;
11582;SDS011;34299;50.820;4.548;2023-03-01T06:34:06;7.82;;;6.18;;
11582;SDS011;34299;50.820;4.548;2023-03-01T06:36:36;9.00;;;6.28;;
11582;SDS011;34299;50.820;4.548;2023-03-01T06:39:03;8.52;;;6.22;;
11582;SDS011;34299;50.820;4.548;2023-03-01T06:41:30;10.85;;;7.55;;
11582;SDS011;34299;50.820;4.548;2023-03-01T06:43:57;12.95;;;7.35;;
11582;SDS011;34299;50.820;4.548;2023-03-01T06:46:26;9.85;;;6.22;;
11582;SDS011;34299;50.820;4.548;2023-03-01T06:48:53;8.88;;;6.43;;
11582;SDS011;34299;50.820;4.548;2023-03-01T06:51:20;9.55;;;6.88;;
11582;SDS011;34299;50.820;4.548;2023-03-01T06:53:48;12.38;;;6.70;;
11582;SDS011;34299;50.820;4.548;2023-03-01T06:56:15;8.05;;;6.53;;
11582;SDS011;34299;50.820;4.548;2023-03-01T06:58:42;8.80;;;6.90;;
11582;SDS011;34299;50.820;4.548;2023-03-01T07:01:09;9.32;;;7.13;;
11582;SDS011;34299;50.820;4.548;2023-03-01T07:03:38;9.27;;;6.45;;
11582;SDS011;34299;50.820;4.548;2023-03-01T07:06:05;11.38;;;6.57;;
11582;SDS011;34299;50.820;4.548;2023-03-01T07:08:32;10.57;;;7.20;;
11582;SDS011;34299;50.820;4.548;2023-03-01T07:11:00;9.18;;;6.60;;
11582;SDS011;34299;50.820;4.548;2023-03-01T07:13:28;9.48;;;6.88;;
11582;SDS011;34299;50.820;4.548;2023-03-01T07:15:56;10.30;;;6.60;;
11582;SDS011;34299;50.820;4.548;2023-03-01T07:18:23;13.10;;;6.75;;
11582;SDS011;34299;50.820;4.548;2023-03-01T07:20:52;10.23;;;6.85;;
11582;SDS011;34299;50.820;4.548;2023-03-01T07:23:19;11.00;;;7.30;;
11582;SDS011;34299;50.820;4.548;2023-03-01T07:25:50;9.30;;;6.78;;
11582;SDS011;34299;50.820;4.548;2023-03-01T07:28:18;10.65;;;7.47;;
11582;SDS011;34299;50.820;4.548;2023-03-01T07:30:45;11.45;;;7.60;;
11582;SDS011;34299;50.820;4.548;2023-03-01T07:33:12;10.57;;;7.22;;
11582;SDS011;34299;50.820;4.548;2023-03-01T07:35:39;10.05;;;7.43;;
11582;SDS011;34299;50.820;4.548;2023-03-01T07:38:08;9.57;;;7.25;;
11582;SDS011;34299;50.820;4.548;2023-03-01T07:40:35;11.02;;;7.78;;
11582;SDS011;34299;50.820;4.548;2023-03-01T07:43:02;12.15;;;7.35;;
11582;SDS011;34299;50.820;4.548;2023-03-01T07:45:30;9.55;;;7.20;;
11582;SDS011;34299;50.820;4.548;2023-03-01T07:47:57;10.77;;;7.43;;
11582;SDS011;34299;50.820;4.548;2023-03-01T07:50:24;11.40;;;6.72;;
11582;SDS011;34299;50.820;4.548;2023-03-01T07:52:51;10.95;;;7.40;;
11582;SDS011;34299;50.820;4.548;2023-03-01T07:55:20;12.98;;;8.05;;
11582;SDS011;34299;50.820;4.548;2023-03-01T07:57:47;13.55;;;7.93;;
11582;SDS011;34299;50.820;4.548;2023-03-01T08:00:15;12.55;;;8.13;;
11582;SDS011;34299;50.820;4.548;2023-03-01T08:02:42;10.23;;;7.53;;
11582;SDS011;34299;50.820;4.548;2023-03-01T08:05:10;11.93;;;7.13;;
11582;SDS011;34299;50.820;4.548;2023-03-01T08:07:37;12.65;;;8.00;;
11582;SDS011;34299;50.820;4.548;2023-03-01T08:10:05;10.15;;;6.72;;
11582;SDS011;34299;50.820;4.548;2023-03-01T08:12:34;11.60;;;7.30;;
11582;SDS011;34299;50.820;4.548;2023-03-01T08:15:01;9.95;;;7.25;;
11582;SDS011;34299;50.820;4.548;2023-03-01T08:17:28;10.00;;;7.43;;
11582;SDS011;34299;50.820;4.548;2023-03-01T08:19:56;10.32;;;7.93;;
11582;SDS011;34299;50.820;4.548;2023-03-01T08:22:23;10.55;;;7.10;;
11582;SDS011;34299;50.820;4.548;2023-03-01T08:24:50;10.82;;;6.53;;
11582;SDS011;34299;50.820;4.548;2023-03-01T08:27:18;14.13;;;7.45;;
11582;SDS011;34299;50.820;4.548;2023-03-01T08:29:46;10.15;;;6.90;;
11582;SDS011;34299;50.820;4.548;2023-03-01T08:32:13;8.35;;;3.63;;
11582;SDS011;34299;50.820;4.548;2023-03-01T08:34:41;3.35;;;2.90;;
11582;SDS011;34299;50.820;4.548;2023-03-01T08:37:08;4.90;;;3.15;;
11582;SDS011;34299;50.820;4.548;2023-03-01T08:39:35;3.80;;;3.20;;
11582;SDS011;34299;50.820;4.548;2023-03-01T08:42:03;9.60;;;5.53;;
11582;SDS011;34299;50.820;4.548;2023-03-01T08:44:30;10.40;;;5.50;;
11582;SDS011;34299;50.820;4.548;2023-03-01T08:47:00;8.52;;;5.45;;
11582;SDS011;34299;50.820;4.548;2023-03-01T08:49:28;12.75;;;5.15;;
11582;SDS011;34299;50.820;4.548;2023-03-01T08:51:57;6.07;;;4.77;;
11582;SDS011;34299;50.820;4.548;2023-03-01T08:54:25;8.43;;;5.17;;
11582;SDS011;34299;50.820;4.548;2023-03-01T08:56:52;8.17;;;5.20;;
11582;SDS011;34299;50.820;4.548;2023-03-01T08:59:19;5.80;;;4.37;;
11582;SDS011;34299;50.820;4.548;2023-03-01T09:01:46;8.80;;;3.93;;
11582;SDS011;34299;50.820;4.548;2023-03-01T09:04:15;5.87;;;4.40;;
11582;SDS011;34299;50.820;4.548;2023-03-01T09:06:42;6.97;;;5.03;;
11582;SDS011;34299;50.820;4.548;2023-03-01T09:09:12;7.57;;;5.23;;
11582;SDS011;34299;50.820;4.548;2023-03-01T09:11:41;6.77;;;5.20;;
11582;SDS011;34299;50.820;4.548;2023-03-01T09:14:08;11.03;;;6.10;;
11582;SDS011;34299;50.820;4.548;2023-03-01T09:16:35;8.90;;;5.60;;
11582;SDS011;34299;50.820;4.548;2023-03-01T09:19:03;8.27;;;5.27;;
11582;SDS011;34299;50.820;4.548;2023-03-01T09:21:31;10.10;;;6.43;;
11582;SDS011;34299;50.820;4.548;2023-03-01T09:23:59;6.60;;;5.00;;
11582;SDS011;34299;50.820;4.548;2023-03-01T09:26:26;7.13;;;5.17;;
11582;SDS011;34299;50.820;4.548;2023-03-01T09:28:54;11.87;;;5.77;;
11582;SDS011;34299;50.820;4.548;2023-03-01T09:31:22;8.17;;;6.20;;
11582;SDS011;34299;50.820;4.548;2023-03-01T09:33:51;8.63;;;6.43;;
11582;SDS011;34299;50.820;4.548;2023-03-01T09:36:19;10.30;;;5.57;;
11582;SDS011;34299;50.820;4.548;2023-03-01T09:38:48;9.53;;;6.23;;
11582;SDS011;34299;50.820;4.548;2023-03-01T09:41:31;8.40;;;6.17;;
11582;SDS011;34299;50.820;4.548;2023-03-01T09:44:01;6.50;;;4.97;;
11582;SDS011;34299;50.820;4.548;2023-03-01T09:46:29;9.47;;;6.03;;
11582;SDS011;34299;50.820;4.548;2023-03-01T09:49:01;6.73;;;4.70;;
11582;SDS011;34299;50.820;4.548;2023-03-01T09:51:30;11.83;;;6.87;;
11582;SDS011;34299;50.820;4.548;2023-03-01T09:54:00;9.43;;;6.03;;
11582;SDS011;34299;50.820;4.548;2023-03-01T09:56:29;7.07;;;5.50;;
11582;SDS011;34299;50.820;4.548;2023-03-01T09:58:58;8.30;;;5.93;;
11582;SDS011;34299;50.820;4.548;2023-03-01T10:01:27;9.73;;;5.80;;
11582;SDS011;34299;50.820;4.548;2023-03-01T10:06:40;11.10;;;6.07;;
11582;SDS011;34299;50.820;4.548;2023-03-01T10:09:13;10.13;;;5.53;;
11582;SDS011;34299;50.820;4.548;2023-03-01T10:11:43;10.57;;;6.23;;
11582;SDS011;34299;50.820;4.548;2023-03-01T10:14:15;9.50;;;6.27;;
11582;SDS011;34299;50.820;4.548;2023-03-01T10:16:43;12.13;;;6.90;;
11582;SDS011;34299;50.820;4.548;2023-03-01T10:19:15;9.23;;;6.83;;
11582;SDS011;34299;50.820;4.548;2023-03-01T10:21:44;9.27;;;6.57;;
11582;SDS011;34299;50.820;4.548;2023-03-01T10:24:14;10.93;;;6.40;;
11582;SDS011;34299;50.820;4.548;2023-03-01T10:26:46;8.77;;;6.00;;
11582;SDS011;34299;50.820;4.548;2023-03-01T10:29:14;12.67;;;7.73;;
11582;SDS011;34299;50.820;4.548;2023-03-01T10:31:43;9.70;;;5.80;;
11582;SDS011;34299;50.820;4.548;2023-03-01T10:34:12;8.07;;;6.60;;
11582;SDS011;34299;50.820;4.548;2023-03-01T10:36:39;8.23;;;5.73;;
11582;SDS011;34299;50.820;4.548;2023-03-01T10:39:12;9.73;;;6.63;;
11582;SDS011;34299;50.820;4.548;2023-03-01T10:41:51;8.43;;;6.20;;
11582;SDS011;34299;50.820;4.548;2023-03-01T10:44:34;9.93;;;5.70;;
11582;SDS011;34299;50.820;4.548;2023-03-01T10:47:02;11.07;;;6.53;;
11582;SDS011;34299;50.820;4.548;2023-03-01T10:49:29;9.37;;;6.40;;
11582;SDS011;34299;50.820;4.548;2023-03-01T10:51:56;7.13;;;6.00;;
11582;SDS011;34299;50.820;4.548;2023-03-01T10:54:37;10.57;;;6.47;;
11582;SDS011;34299;50.820;4.548;2023-03-01T10:57:09;10.30;;;6.43;;
11582;SDS011;34299;50.820;4.548;2023-03-01T10:59:51;9.80;;;6.43;;
11582;SDS011;34299;50.820;4.548;2023-03-01T11:02:29;9.80;;;6.83;;
11582;SDS011;34299;50.820;4.548;2023-03-01T11:04:58;9.73;;;6.17;;
11582;SDS011;34299;50.820;4.548;2023-03-01T11:07:25;7.87;;;5.93;;
11582;SDS011;34299;50.820;4.548;2023-03-01T11:09:53;11.90;;;6.47;;
11582;SDS011;34299;50.820;4.548;2023-03-01T11:12:21;10.60;;;6.50;;
11582;SDS011;34299;50.820;4.548;2023-03-01T11:14:49;6.43;;;5.40;;
11582;SDS011;34299;50.820;4.548;2023-03-01T11:17:17;9.80;;;5.93;;
11582;SDS011;34299;50.820;4.548;2023-03-01T11:19:52;8.30;;;5.60;;
11582;SDS011;34299;50.820;4.548;2023-03-01T11:22:26;7.53;;;6.10;;
11582;SDS011;34299;50.820;4.548;2023-03-01T11:24:54;7.23;;;5.80;;
11582;SDS011;34299;50.820;4.548;2023-03-01T11:27:26;6.73;;;5.47;;
11582;SDS011;34299;50.820;4.548;2023-03-01T11:29:54;8.10;;;5.97;;
11582;SDS011;34299;50.820;4.548;2023-03-01T11:32:23;8.17;;;6.40;;
11582;SDS011;34299;50.820;4.548;2023-03-01T11:34:53;9.10;;;5.37;;
11582;SDS011;34299;50.820;4.548;2023-03-01T11:37:23;6.83;;;5.20;;
11582;SDS011;34299;50.820;4.548;2023-03-01T11:39:54;8.03;;;6.00;;
11582;SDS011;34299;50.820;4.548;2023-03-01T11:42:28;6.87;;;5.43;;
11582;SDS011;34299;50.820;4.548;2023-03-01T11:44:59;10.30;;;6.07;;
11582;SDS011;34299;50.820;4.548;2023-03-01T11:47:31;9.40;;;5.57;;
11582;SDS011;34299;50.820;4.548;2023-03-01T11:50:03;6.90;;;5.07;;
11582;SDS011;34299;50.820;4.548;2023-03-01T11:52:35;7.87;;;5.97;;
11582;SDS011;34299;50.820;4.548;2023-03-01T11:55:12;7.20;;;5.43;;
11582;SDS011;34299;50.820;4.548;2023-03-01T11:57:50;8.90;;;6.23;;
11582;SDS011;34299;50.820;4.548;2023-03-01T12:00:25;8.57;;;5.83;;
11582;SDS011;34299;50.820;4.548;2023-03-01T12:08:45;9.60;;;6.50;;
11582;SDS011;34299;50.820;4.548;2023-03-01T12:11:18;8.53;;;6.20;;
11582;SDS011;34299;50.820;4.548;2023-03-01T12:16:55;8.23;;;5.93;;
11582;SDS011;34299;50.820;4.548;2023-03-01T12:19:29;8.60;;;6.03;;
11582;SDS011;34299;50.820;4.548;2023-03-01T12:22:04;7.77;;;5.47;;
11582;SDS011;34299;50.820;4.548;2023-03-01T12:24:41;9.30;;;5.80;;
11582;SDS011;34299;50.820;4.548;2023-03-01T12:27:18;7.80;;;6.00;;
11582;SDS011;34299;50.820;4.548;2023-03-01T12:29:47;10.57;;;5.77;;
11582;SDS011;34299;50.820;4.548;2023-03-01T12:35:19;8.20;;;6.03;;
11582;SDS011;34299;50.820;4.548;2023-03-01T12:37:54;9.47;;;6.10;;
11582;SDS011;34299;50.820;4.548;2023-03-01T12:40:25;6.10;;;5.50;;
11582;SDS011;34299;50.820;4.548;2023-03-01T12:42:58;9.70;;;5.83;;
11582;SDS011;34299;50.820;4.548;2023-03-01T12:45:32;7.43;;;5.47;;
11582;SDS011;34299;50.820;4.548;2023-03-01T12:48:07;8.07;;;5.97;;
11582;SDS011;34299;50.820;4.548;2023-03-01T12:50:39;7.90;;;6.13;;
11582;SDS011;34299;50.820;4.548;2023-03-01T12:53:12;7.97;;;4.87;;
11582;SDS011;34299;50.820;4.548;2023-03-01T12:55:42;8.20;;;5.73;;
11582;SDS011;34299;50.820;4.548;2023-03-01T12:58:13;7.93;;;5.47;;
11582;SDS011;34299;50.820;4.548;2023-03-01T13:00:55;6.60;;;5.10;;
11582;SDS011;34299;50.820;4.548;2023-03-01T13:03:29;9.43;;;6.00;;
11582;SDS011;34299;50.820;4.548;2023-03-01T13:06:04;6.93;;;5.07;;
11582;SDS011;34299;50.820;4.548;2023-03-01T13:08:35;7.50;;;5.13;;
11582;SDS011;34299;50.820;4.548;2023-03-01T13:11:04;9.90;;;5.87;;
11582;SDS011;34299;50.820;4.548;2023-03-01T13:13:32;7.27;;;5.43;;
11582;SDS011;34299;50.820;4.548;2023-03-01T13:16:19;6.80;;;5.37;;
11582;SDS011;34299;50.820;4.548;2023-03-01T13:18:47;7.40;;;5.10;;
11582;SDS011;34299;50.820;4.548;2023-03-01T13:21:16;8.20;;;5.30;;
11582;SDS011;34299;50.820;4.548;2023-03-01T13:23:55;7.90;;;5.93;;
11582;SDS011;34299;50.820;4.548;2023-03-01T13:26:23;5.20;;;4.63;;
11582;SDS011;34299;50.820;4.548;2023-03-01T13:28:54;8.30;;;5.77;;
11582;SDS011;34299;50.820;4.548;2023-03-01T13:34:10;6.60;;;5.27;;
11582;SDS011;34299;50.820;4.548;2023-03-01T13:37:09;6.03;;;5.17;;
11582;SDS011;34299;50.820;4.548;2023-03-01T13:39:39;6.07;;;5.20;;
11582;SDS011;34299;50.820;4.548;2023-03-01T13:44:49;7.57;;;5.50;;
11582;SDS011;34299;50.820;4.548;2023-03-01T13:47:16;6.27;;;5.17;;
11582;SDS011;34299;50.820;4.548;2023-03-01T13:49:46;8.03;;;5.50;;
11582;SDS011;34299;50.820;4.548;2023-03-01T13:52:26;7.20;;;5.30;;
11582;SDS011;34299;50.820;4.548;2023-03-01T13:54:57;8.13;;;5.50;;
11582;SDS011;34299;50.820;4.548;2023-03-01T13:57:29;7.73;;;5.70;;
11582;SDS011;34299;50.820;4.548;2023-03-01T13:59:59;6.53;;;5.40;;
11582;SDS011;34299;50.820;4.548;2023-03-01T14:02:26;6.07;;;5.13;;
11582;SDS011;34299;50.820;4.548;2023-03-01T14:04:57;9.27;;;5.23;;
11582;SDS011;34299;50.820;4.548;2023-03-01T14:07:25;7.60;;;5.53;;
11582;SDS011;34299;50.820;4.548;2023-03-01T14:09:56;8.60;;;6.00;;
11582;SDS011;34299;50.820;4.548;2023-03-01T14:12:26;6.90;;;5.77;;
11582;SDS011;34299;50.820;4.548;2023-03-01T14:14:59;8.97;;;5.90;;
11582;SDS011;34299;50.820;4.548;2023-03-01T14:17:37;8.67;;;6.00;;
11582;SDS011;34299;50.820;4.548;2023-03-01T14:20:11;9.20;;;6.30;;
11582;SDS011;34299;50.820;4.548;2023-03-01T14:22:41;8.80;;;6.30;;
11582;SDS011;34299;50.820;4.548;2023-03-01T14:27:52;6.73;;;5.30;;
11582;SDS011;34299;50.820;4.548;2023-03-01T14:30:21;7.23;;;6.17;;
11582;SDS011;34299;50.820;4.548;2023-03-01T14:32:53;8.37;;;5.50;;
11582;SDS011;34299;50.820;4.548;2023-03-01T14:35:22;6.83;;;5.93;;
11582;SDS011;34299;50.820;4.548;2023-03-01T14:37:51;8.90;;;6.00;;
11582;SDS011;34299;50.820;4.548;2023-03-01T14:40:25;7.63;;;5.93;;
11582;SDS011;34299;50.820;4.548;2023-03-01T14:42:53;6.70;;;5.27;;
11582;SDS011;34299;50.820;4.548;2023-03-01T14:45:21;8.03;;;5.90;;
11582;SDS011;34299;50.820;4.548;2023-03-01T14:47:49;6.77;;;6.07;;
11582;SDS011;34299;50.820;4.548;2023-03-01T14:50:21;6.60;;;5.90;;
11582;SDS011;34299;50.820;4.548;2023-03-01T14:52:51;7.90;;;6.23;;
11582;SDS011;34299;50.820;4.548;2023-03-01T14:55:20;6.57;;;5.70;;
11582;SDS011;34299;50.820;4.548;2023-03-01T14:57:49;10.00;;;6.03;;
11582;SDS011;34299;50.820;4.548;2023-03-01T15:00:18;7.17;;;6.23;;
11582;SDS011;34299;50.820;4.548;2023-03-01T15:02:45;8.03;;;5.40;;
11582;SDS011;34299;50.820;4.548;2023-03-01T15:05:14;6.93;;;5.70;;
11582;SDS011;34299;50.820;4.548;2023-03-01T15:07:43;5.93;;;5.33;;
11582;SDS011;34299;50.820;4.548;2023-03-01T15:10:19;6.97;;;5.60;;
11582;SDS011;34299;50.820;4.548;2023-03-01T15:12:48;8.93;;;5.70;;
11582;SDS011;34299;50.820;4.548;2023-03-01T15:15:21;7.20;;;6.10;;
11582;SDS011;34299;50.820;4.548;2023-03-01T15:17:50;8.57;;;5.47;;
11582;SDS011;34299;50.820;4.548;2023-03-01T15:20:22;8.37;;;5.80;;